createdAt,value
2019-02-23T00:03:06.333Z,2.32
2019-02-23T00:03:59.469Z,2.18
2019-02-23T00:04:59.548Z,2.17
2019-02-23T00:05:59.497Z,2.20
2019-02-23T00:06:59.283Z,2.20
2019-02-23T00:08:06.380Z,2.25
2019-02-23T00:11:22.777Z,2.20
2019-02-23T00:12:11.064Z,2.10
2019-02-23T00:13:11.062Z,2.11
2019-02-23T00:14:22.035Z,2.15
2019-02-23T00:15:10.866Z,2.17
2019-02-23T00:16:12.713Z,2.24
2019-02-23T00:17:10.799Z,2.20
2019-02-23T00:18:12.719Z,2.20
2019-02-23T00:19:10.979Z,2.22
2019-02-23T00:20:10.907Z,2.20
2019-02-23T00:21:10.902Z,2.18
2019-02-23T00:22:10.897Z,2.25
2019-02-23T00:23:10.905Z,2.25
2019-02-23T00:24:10.766Z,2.20
2019-02-23T00:25:10.799Z,2.22
2019-02-23T00:26:10.655Z,2.28
2019-02-23T00:27:10.716Z,2.20
2019-02-23T00:28:10.685Z,2.20
2019-02-23T00:29:10.668Z,2.22
2019-02-23T00:30:13.253Z,2.18
2019-02-23T00:31:10.611Z,2.24
2019-02-23T00:32:10.497Z,2.17
2019-02-23T00:33:10.757Z,2.22
2019-02-23T00:34:10.654Z,2.20
2019-02-23T00:35:10.707Z,2.22
2019-02-23T00:36:10.532Z,2.26
2019-02-23T00:37:12.316Z,2.24
2019-02-23T00:38:10.484Z,2.26
2019-02-23T00:39:11.329Z,2.25
2019-02-23T00:40:10.605Z,2.28
2019-02-23T00:41:10.461Z,2.31
2019-02-23T00:42:11.041Z,2.20
2019-02-23T00:43:31.545Z,2.24
2019-02-23T00:44:10.485Z,2.26
2019-02-23T00:45:10.434Z,2.28
2019-02-23T00:46:12.648Z,2.25
2019-02-23T00:48:35.792Z,2.25
2019-02-23T00:49:36.587Z,2.36
2019-02-23T00:51:31.143Z,2.33
2019-02-23T00:52:28.652Z,2.31
2019-02-23T00:53:28.540Z,2.35
2019-02-23T00:54:29.405Z,2.32
2019-02-23T00:59:26.043Z,2.33
2019-02-23T01:00:16.156Z,2.29
2019-02-23T01:01:16.190Z,2.31
2019-02-23T01:02:16.053Z,2.32
2019-02-23T01:03:16.144Z,2.32
2019-02-23T01:04:16.952Z,2.28
2019-02-23T01:05:16.116Z,2.31
2019-02-23T01:06:16.102Z,2.32
2019-02-23T01:07:16.295Z,2.36
2019-02-23T01:08:16.188Z,2.39
2019-02-23T01:09:15.949Z,2.42
2019-02-23T01:10:16.078Z,2.31
2019-02-23T01:11:16.110Z,2.39
2019-02-23T01:12:16.531Z,2.38
2019-02-23T01:13:15.822Z,2.31
2019-02-23T01:14:15.843Z,2.38
2019-02-23T01:15:15.999Z,2.43
2019-02-23T01:16:15.864Z,2.43
2019-02-23T01:17:17.669Z,2.33
2019-02-23T01:18:18.461Z,2.38
2019-02-23T01:19:15.796Z,2.33
2019-02-23T01:20:16.145Z,2.44
2019-02-23T01:21:16.587Z,2.33
2019-02-23T01:22:15.922Z,2.51
2019-02-23T01:23:15.734Z,2.46
2019-02-23T01:24:17.419Z,2.42
2019-02-23T01:25:15.777Z,2.42
2019-02-23T01:26:15.624Z,2.46
2019-02-23T01:27:16.702Z,2.44
2019-02-23T01:28:15.748Z,2.60
2019-02-23T01:29:15.627Z,2.47
2019-02-23T01:30:15.626Z,2.57
2019-02-23T01:33:13.631Z,2.60
2019-02-23T01:33:55.795Z,2.56
2019-02-23T01:37:16.829Z,2.60
2019-02-23T01:38:16.682Z,2.57
2019-02-23T01:39:18.437Z,2.56
2019-02-23T01:40:16.634Z,2.54
2019-02-23T01:41:16.656Z,2.57
2019-02-23T01:42:16.550Z,2.62
2019-02-23T01:43:17.763Z,2.61
2019-02-23T01:44:16.499Z,2.53
2019-02-23T01:45:16.760Z,2.64
2019-02-23T01:46:17.455Z,2.56
2019-02-23T01:47:16.473Z,2.62
2019-02-23T01:48:17.444Z,2.56
2019-02-23T01:49:17.061Z,2.60
2019-02-23T01:50:17.051Z,2.67
2019-02-23T01:51:17.017Z,2.61
2019-02-23T01:52:18.987Z,2.68
2019-02-23T01:53:16.509Z,2.56
2019-02-23T01:54:16.928Z,2.61
2019-02-23T01:55:16.485Z,2.67
2019-02-23T01:56:17.234Z,2.64
2019-02-23T01:57:18.982Z,2.64
2019-02-23T01:58:17.105Z,2.67
2019-02-23T01:59:16.463Z,2.61
2019-02-23T02:00:17.069Z,2.67
2019-02-23T02:01:16.257Z,2.71
2019-02-23T02:02:19.012Z,2.69
2019-02-23T02:03:16.349Z,2.67
2019-02-23T02:04:16.315Z,2.67
2019-02-23T02:05:16.127Z,2.72
2019-02-23T02:06:16.966Z,2.74
2019-02-23T02:07:17.239Z,2.87
2019-02-23T02:08:16.233Z,2.82
2019-02-23T02:09:16.783Z,2.87
2019-02-23T02:10:19.131Z,2.74
2019-02-23T02:11:17.054Z,2.77
2019-02-23T02:12:16.138Z,2.79
2019-02-23T02:13:16.079Z,2.77
2019-02-23T02:14:17.546Z,2.80
2019-02-23T02:15:18.518Z,2.77
2019-02-23T02:16:16.144Z,2.79
2019-02-23T02:17:15.998Z,2.82
2019-02-23T02:18:16.478Z,2.77
2019-02-23T02:19:16.094Z,2.83
2019-02-23T02:20:16.583Z,2.79
2019-02-23T02:21:24.913Z,2.74
2019-02-23T02:23:09.190Z,2.86
2019-02-23T02:24:13.767Z,2.83
2019-02-23T02:25:09.233Z,2.93
2019-02-23T02:26:09.193Z,2.89
2019-02-23T02:29:29.048Z,2.92
2019-02-23T02:30:28.496Z,2.93
2019-02-23T02:31:28.465Z,2.95
2019-02-23T02:32:28.527Z,2.90
2019-02-23T02:33:28.408Z,3.00
2019-02-23T02:34:28.476Z,2.98
2019-02-23T02:35:30.239Z,2.95
2019-02-23T02:36:28.462Z,3.01
2019-02-23T02:37:28.543Z,3.03
2019-02-23T02:38:28.371Z,2.93
2019-02-23T02:39:28.362Z,2.98
2019-02-23T02:40:28.296Z,2.98
2019-02-23T02:41:28.215Z,3.08
2019-02-23T02:42:31.081Z,3.08
2019-02-23T02:43:29.175Z,3.05
2019-02-23T02:44:28.318Z,3.08
2019-02-23T02:45:28.258Z,3.00
2019-02-23T02:46:28.169Z,3.05
2019-02-23T02:47:28.272Z,2.97
2019-02-23T02:48:28.166Z,3.08
2019-02-23T02:49:28.180Z,3.10
2019-02-23T02:50:28.028Z,3.07
2019-02-23T02:51:28.004Z,3.07
2019-02-23T02:52:28.115Z,3.08
2019-02-23T02:53:28.587Z,3.05
2019-02-23T02:54:28.177Z,3.07
2019-02-23T02:55:27.868Z,3.08
2019-02-23T02:56:28.526Z,3.07
2019-02-23T02:57:28.023Z,3.07
2019-02-23T02:58:27.956Z,3.01
2019-02-23T02:59:32.768Z,3.08
2019-02-23T03:00:32.624Z,3.03
2019-02-23T03:01:27.981Z,3.10
2019-02-23T03:02:27.982Z,3.13
2019-02-23T03:03:27.820Z,3.01
2019-02-23T03:04:28.057Z,3.04
2019-02-23T03:05:27.996Z,3.04
2019-02-23T03:06:27.731Z,3.18
2019-02-23T03:07:28.614Z,3.10
2019-02-23T03:08:27.649Z,3.13
2019-02-23T03:09:27.610Z,3.08
2019-02-23T03:10:27.825Z,3.10
2019-02-23T03:11:27.944Z,3.11
2019-02-23T03:12:27.890Z,3.14
2019-02-23T03:13:27.594Z,3.11
2019-02-23T03:14:27.677Z,3.10
2019-02-23T03:15:27.786Z,3.11
2019-02-23T03:16:29.617Z,3.14
2019-02-23T03:17:28.124Z,3.13
2019-02-23T03:18:38.045Z,3.19
2019-02-23T03:19:27.597Z,3.14
2019-02-23T03:20:36.615Z,3.18
2019-02-23T03:21:27.561Z,3.07
2019-02-23T03:22:29.968Z,3.19
2019-02-23T03:23:27.518Z,3.18
2019-02-23T03:24:27.351Z,3.11
2019-02-23T03:25:27.316Z,3.16
2019-02-23T03:26:28.095Z,3.13
2019-02-23T03:27:28.102Z,3.11
2019-02-23T03:28:27.554Z,3.18
2019-02-23T03:29:27.375Z,3.13
2019-02-23T03:30:27.357Z,3.14
2019-02-23T03:31:28.279Z,3.05
2019-02-23T03:32:27.307Z,3.05
2019-02-23T03:33:27.438Z,3.05
2019-02-23T03:34:27.265Z,3.07
2019-02-23T03:35:27.409Z,3.11
2019-02-23T03:36:27.183Z,2.95
2019-02-23T03:37:27.137Z,3.04
2019-02-23T03:38:27.278Z,3.11
2019-02-23T03:39:26.991Z,3.05
2019-02-23T03:40:27.101Z,3.03
2019-02-23T03:41:27.145Z,3.05
2019-02-23T03:42:27.108Z,3.04
2019-02-23T03:43:27.364Z,3.14
2019-02-23T03:44:27.140Z,3.07
2019-02-23T03:45:27.094Z,3.05
2019-02-23T03:46:26.881Z,3.11
2019-02-23T03:47:27.126Z,3.01
2019-02-23T03:48:27.768Z,3.07
2019-02-23T03:49:27.078Z,3.08
2019-02-23T03:50:29.558Z,3.05
2019-02-23T03:51:27.061Z,3.10
2019-02-23T03:52:26.796Z,3.04
2019-02-23T03:53:26.840Z,3.07
2019-02-23T03:54:26.803Z,3.03
2019-02-23T03:55:26.765Z,2.97
2019-02-23T03:56:26.849Z,3.08
2019-02-23T03:57:26.756Z,3.00
2019-02-23T03:58:27.106Z,3.03
2019-02-23T03:59:31.563Z,3.03
2019-02-23T04:00:26.662Z,3.05
2019-02-23T04:01:26.810Z,3.03
2019-02-23T04:02:26.738Z,3.10
2019-02-23T04:03:26.674Z,3.07
2019-02-23T04:04:26.636Z,3.16
2019-02-23T04:05:26.726Z,3.07
2019-02-23T04:06:26.730Z,3.05
2019-02-23T04:07:26.602Z,3.11
2019-02-23T04:08:26.643Z,3.01
2019-02-23T04:09:26.640Z,3.21
2019-02-23T04:10:26.408Z,3.04
2019-02-23T04:11:26.662Z,3.05
2019-02-23T04:12:26.398Z,3.08
2019-02-23T04:13:26.508Z,3.07
2019-02-23T04:14:26.541Z,3.05
2019-02-23T04:15:26.358Z,3.11
2019-02-23T04:16:26.407Z,3.16
2019-02-23T04:17:33.068Z,3.14
2019-02-23T04:18:26.423Z,3.07
2019-02-23T04:19:26.465Z,3.10
2019-02-23T04:20:27.069Z,3.11
2019-02-23T04:21:28.082Z,3.10
2019-02-23T04:22:26.342Z,3.14
2019-02-23T04:23:26.234Z,3.11
2019-02-23T04:24:26.932Z,3.14
2019-02-23T04:25:27.101Z,3.16
2019-02-23T04:26:26.181Z,3.28
2019-02-23T04:27:28.063Z,3.22
2019-02-23T04:28:27.143Z,3.19
2019-02-23T04:29:26.231Z,3.28
2019-02-23T04:30:26.176Z,3.31
2019-02-23T04:31:33.143Z,3.28
2019-02-23T04:32:26.045Z,3.28
2019-02-23T04:33:27.032Z,3.23
2019-02-23T04:34:36.678Z,3.26
2019-02-23T04:35:26.536Z,3.25
2019-02-23T04:36:25.984Z,3.22
2019-02-23T04:37:26.029Z,3.28
2019-02-23T04:38:26.021Z,3.22
2019-02-23T04:39:26.498Z,3.21
2019-02-23T04:40:28.745Z,3.19
2019-02-23T04:41:26.010Z,3.29
2019-02-23T04:42:25.874Z,3.28
2019-02-23T04:43:25.857Z,3.28
2019-02-23T04:44:25.850Z,3.36
2019-02-23T04:45:25.876Z,3.31
2019-02-23T04:46:25.817Z,3.28
2019-02-23T04:47:25.982Z,3.28
2019-02-23T04:48:25.857Z,3.28
2019-02-23T04:49:26.157Z,3.25
2019-02-23T04:50:25.864Z,3.36
2019-02-23T04:51:28.739Z,3.40
2019-02-23T04:52:25.756Z,3.40
2019-02-23T04:53:26.543Z,3.36
2019-02-23T04:54:25.808Z,3.34
2019-02-23T04:55:25.762Z,3.36
2019-02-23T04:56:25.636Z,3.28
2019-02-23T04:57:25.745Z,3.32
2019-02-23T04:58:25.733Z,3.32
2019-02-23T04:59:27.649Z,3.29
2019-02-23T05:00:27.184Z,3.29
2019-02-23T05:01:25.468Z,3.34
2019-02-23T05:02:25.671Z,3.29
2019-02-23T05:03:28.196Z,3.44
2019-02-23T05:04:25.630Z,3.50
2019-02-23T05:05:25.416Z,3.53
2019-02-23T05:06:25.503Z,3.45
2019-02-23T05:07:25.449Z,3.42
2019-02-23T05:08:25.491Z,3.42
2019-02-23T05:09:25.382Z,3.45
2019-02-23T05:10:25.521Z,3.44
2019-02-23T05:12:25.395Z,3.45
2019-02-23T05:13:25.285Z,3.36
2019-02-23T05:14:25.386Z,3.44
2019-02-23T05:15:26.134Z,3.45
2019-02-23T05:16:26.158Z,3.47
2019-02-23T05:17:25.416Z,3.44
2019-02-23T05:18:25.340Z,3.42
2019-02-23T05:19:28.070Z,3.37
2019-02-23T05:20:26.046Z,3.29
2019-02-23T05:21:26.818Z,3.40
2019-02-23T05:22:25.128Z,3.41
2019-02-23T05:23:25.131Z,3.42
2019-02-23T05:24:25.249Z,3.48
2019-02-23T05:25:46.275Z,3.48
2019-02-23T05:26:26.651Z,3.63
2019-02-23T05:27:29.613Z,3.55
2019-02-23T05:28:25.107Z,3.58
2019-02-23T05:29:25.067Z,3.56
2019-02-23T05:30:25.587Z,3.58
2019-02-23T05:31:29.534Z,3.47
2019-02-23T05:32:25.009Z,3.50
2019-02-23T05:33:24.976Z,3.62
2019-02-23T05:34:24.971Z,3.48
2019-02-23T05:35:26.545Z,3.47
2019-02-23T05:36:24.917Z,3.42
2019-02-23T05:37:29.613Z,3.47
2019-02-23T05:38:24.881Z,3.51
2019-02-23T05:39:24.888Z,3.60
2019-02-23T05:40:25.520Z,3.59
2019-02-23T05:41:24.809Z,3.66
2019-02-23T05:42:24.865Z,3.58
2019-02-23T05:43:24.942Z,3.50
2019-02-23T05:44:24.864Z,3.69
2019-02-23T05:45:29.596Z,3.66
2019-02-23T05:46:24.761Z,3.56
2019-02-23T05:47:24.747Z,3.62
2019-02-23T05:48:24.706Z,3.70
2019-02-23T05:49:24.715Z,3.68
2019-02-23T05:50:24.603Z,3.68
2019-02-23T05:51:25.589Z,3.58
2019-02-23T05:52:24.498Z,3.59
2019-02-23T05:53:38.996Z,3.55
2019-02-23T05:54:24.481Z,3.51
2019-02-23T05:55:24.622Z,3.44
2019-02-23T05:56:24.502Z,3.53
2019-02-23T05:57:24.537Z,3.48
2019-02-23T05:58:24.481Z,3.63
2019-02-23T05:59:26.006Z,3.53
2019-02-23T06:00:25.112Z,3.68
2019-02-23T06:01:24.322Z,3.69
2019-02-23T06:02:27.121Z,3.65
2019-02-23T06:03:24.417Z,3.76
2019-02-23T06:04:24.667Z,3.70
2019-02-23T06:05:27.107Z,3.68
2019-02-23T06:06:24.485Z,3.69
2019-02-23T06:07:27.242Z,3.65
2019-02-23T06:08:27.086Z,3.70
2019-02-23T06:09:24.286Z,3.70
2019-02-23T06:10:24.186Z,3.73
2019-02-23T06:12:25.075Z,3.78
2019-02-23T06:13:25.390Z,3.84
2019-02-23T06:14:26.032Z,3.86
2019-02-23T06:15:26.166Z,3.83
2019-02-23T06:16:24.132Z,3.84
2019-02-23T06:17:25.083Z,3.88
2019-02-23T06:18:27.219Z,3.87
2019-02-23T06:19:25.801Z,3.98
2019-02-23T06:20:24.055Z,3.94
2019-02-23T06:21:24.310Z,3.92
2019-02-23T06:22:23.935Z,3.91
2019-02-23T06:23:26.615Z,3.95
2019-02-23T06:24:24.086Z,3.92
2019-02-23T06:25:30.847Z,3.94
2019-02-23T06:26:24.083Z,3.95
2019-02-23T06:27:23.921Z,3.92
2019-02-23T06:28:23.933Z,3.95
2019-02-23T06:29:28.693Z,3.88
2019-02-23T06:30:23.841Z,3.88
2019-02-23T06:31:26.772Z,3.84
2019-02-23T06:32:23.944Z,3.81
2019-02-23T06:33:23.846Z,3.87
2019-02-23T06:34:23.877Z,3.86
2019-02-23T06:35:24.648Z,3.88
2019-02-23T06:36:23.860Z,3.84
2019-02-23T06:37:23.721Z,3.83
2019-02-23T06:38:24.825Z,3.76
2019-02-23T06:39:23.798Z,3.87
2019-02-23T06:40:28.548Z,3.84
2019-02-23T06:41:28.610Z,3.87
2019-02-23T06:42:24.786Z,3.83
2019-02-23T06:43:24.964Z,3.88
2019-02-23T06:44:23.674Z,3.83
2019-02-23T06:45:34.185Z,3.91
2019-02-23T06:46:23.669Z,3.78
2019-02-23T06:47:23.558Z,3.91
2019-02-23T06:48:25.019Z,4.08
2019-02-23T06:49:24.079Z,4.13
2019-02-23T06:50:25.192Z,4.10
2019-02-23T06:51:23.526Z,4.26
2019-02-23T06:52:23.456Z,4.37
2019-02-23T06:53:23.481Z,4.35
2019-02-23T06:54:38.253Z,4.37
2019-02-23T06:55:25.166Z,4.40
2019-02-23T06:57:25.149Z,4.41
2019-02-23T06:58:23.411Z,4.42
2019-02-23T06:59:23.477Z,4.42
2019-02-23T07:00:25.236Z,4.42
2019-02-23T07:01:23.406Z,4.55
2019-02-23T07:02:24.117Z,4.50
2019-02-23T07:03:24.302Z,4.55
2019-02-23T07:04:23.394Z,4.49
2019-02-23T07:05:23.429Z,4.56
2019-02-23T07:06:25.214Z,4.53
2019-02-23T07:07:23.209Z,4.62
2019-02-23T07:08:25.289Z,4.66
2019-02-23T07:09:23.227Z,4.66
2019-02-23T07:10:34.210Z,4.68
2019-02-23T07:12:24.224Z,4.60
2019-02-23T07:13:29.676Z,4.67
2019-02-23T07:14:23.233Z,4.63
2019-02-23T07:15:27.506Z,4.70
2019-02-23T07:16:22.987Z,4.74
2019-02-23T07:17:27.637Z,4.75
2019-02-23T07:18:27.736Z,4.75
2019-02-23T07:19:23.126Z,4.82
2019-02-23T07:20:24.734Z,4.82
2019-02-23T07:21:23.044Z,4.74
2019-02-23T07:22:24.705Z,4.78
2019-02-23T07:23:22.929Z,4.78
2019-02-23T07:24:25.633Z,4.77
2019-02-23T07:25:23.011Z,4.90
2019-02-23T07:26:22.915Z,4.78
2019-02-23T07:27:24.582Z,4.89
2019-02-23T07:28:23.224Z,4.93
2019-02-23T07:29:24.602Z,4.93
2019-02-23T07:30:22.774Z,4.86
2019-02-23T07:31:23.666Z,4.86
2019-02-23T07:32:24.726Z,4.89
2019-02-23T07:33:32.864Z,4.90
2019-02-23T07:34:22.846Z,4.84
2019-02-23T07:35:23.818Z,4.87
2019-02-23T07:36:22.775Z,5.00
2019-02-23T07:37:23.613Z,4.97
2019-02-23T07:38:44.568Z,5.02
2019-02-23T07:40:37.316Z,5.10
2019-02-23T07:41:27.210Z,5.11
2019-02-23T07:42:22.665Z,5.21
2019-02-23T07:43:24.144Z,5.26
2019-02-23T07:44:22.771Z,5.20
2019-02-23T07:45:22.712Z,5.28
2019-02-23T07:46:22.486Z,5.25
2019-02-23T07:47:29.106Z,5.17
2019-02-23T07:48:22.641Z,5.26
2019-02-23T07:49:27.305Z,5.26
2019-02-23T07:50:24.341Z,5.30
2019-02-23T07:52:31.215Z,5.41
2019-02-23T07:54:40.303Z,5.36
2019-02-23T07:55:17.570Z,5.33
2019-02-23T07:58:44.711Z,5.38
2019-02-23T07:59:38.508Z,5.47
2019-02-23T08:00:38.556Z,5.53
2019-02-23T08:01:38.583Z,5.50
2019-02-23T08:02:38.443Z,5.47
2019-02-23T08:03:41.228Z,5.57
2019-02-23T08:04:39.421Z,5.66
2019-02-23T08:05:39.485Z,5.59
2019-02-23T08:06:40.324Z,5.69
2019-02-23T08:07:39.900Z,5.69
2019-02-23T08:08:38.375Z,5.75
2019-02-23T08:09:38.301Z,5.84
2019-02-23T08:10:59.273Z,5.90
2019-02-23T08:11:40.701Z,5.83
2019-02-23T08:12:40.866Z,5.91
2019-02-23T08:13:49.164Z,5.93
2019-02-23T08:14:38.423Z,5.84
2019-02-23T08:15:38.736Z,6.04
2019-02-23T08:16:38.242Z,6.01
2019-02-23T08:17:38.416Z,5.93
2019-02-23T08:18:38.176Z,6.02
2019-02-23T08:19:38.800Z,6.12
2019-02-23T08:21:05.790Z,6.17
2019-02-23T08:21:38.251Z,6.35
2019-02-23T08:22:38.748Z,6.38
2019-02-23T08:23:39.774Z,6.38
2019-02-23T08:24:38.201Z,6.48
2019-02-23T08:25:38.122Z,6.59
2019-02-23T08:26:38.129Z,6.74
2019-02-23T08:27:38.692Z,6.62
2019-02-23T08:28:38.139Z,6.67
2019-02-23T08:29:38.435Z,6.66
2019-02-23T08:30:44.765Z,6.85
2019-02-23T08:31:37.967Z,6.95
2019-02-23T08:32:37.883Z,6.79
2019-02-23T08:33:37.909Z,6.92
2019-02-23T08:34:39.731Z,6.99
2019-02-23T08:35:43.016Z,6.84
2019-02-23T08:36:37.899Z,7.00
2019-02-23T08:37:38.920Z,7.06
2019-02-23T08:38:38.136Z,7.03
2019-02-23T08:39:37.927Z,6.95
2019-02-23T08:40:37.784Z,7.15
2019-02-23T08:41:37.866Z,7.11
2019-02-23T08:42:44.203Z,7.10
2019-02-23T08:43:48.638Z,7.05
2019-02-23T08:45:37.647Z,7.02
2019-02-23T08:46:40.433Z,6.97
2019-02-23T08:47:38.357Z,6.92
2019-02-23T08:48:38.395Z,6.95
2019-02-23T08:49:37.718Z,6.97
2019-02-23T08:50:38.342Z,7.14
2019-02-23T08:52:48.165Z,7.10
2019-02-23T08:53:39.318Z,7.21
2019-02-23T08:55:00.368Z,7.21
2019-02-23T08:55:38.355Z,7.25
2019-02-23T08:56:37.631Z,7.29
2019-02-23T08:57:37.590Z,7.47
2019-02-23T08:58:37.521Z,7.48
2019-02-23T08:59:38.343Z,7.38
2019-02-23T09:00:44.365Z,7.45
2019-02-23T09:01:59.357Z,7.47
2019-02-23T09:02:44.235Z,7.56
2019-02-23T09:03:38.212Z,7.48
2019-02-23T09:04:39.332Z,7.69
2019-02-23T09:06:40.504Z,7.66
2019-02-23T09:08:37.390Z,7.67
2019-02-23T09:09:37.956Z,7.79
2019-02-23T09:10:38.458Z,7.76
2019-02-23T09:14:06.303Z,8.15
2019-02-23T09:17:44.276Z,8.31
2019-02-23T09:18:29.064Z,8.67
2019-02-23T09:19:28.431Z,8.84
2019-02-23T09:20:29.694Z,9.39
2019-02-23T09:21:43.343Z,9.31
2019-02-23T09:22:31.120Z,9.29
2019-02-23T09:23:28.432Z,9.47
2019-02-23T09:24:29.285Z,9.41
2019-02-23T09:25:28.313Z,9.48
2019-02-23T09:26:28.309Z,9.51
2019-02-23T09:27:43.091Z,9.97
2019-02-23T09:28:31.253Z,10.35
2019-02-23T09:29:31.215Z,10.34
2019-02-23T09:30:30.185Z,10.71
2019-02-23T09:31:28.130Z,10.71
2019-02-23T09:32:28.221Z,10.64
2019-02-23T09:33:28.489Z,11.08
2019-02-23T09:34:34.671Z,10.92
2019-02-23T09:35:28.206Z,10.93
2019-02-23T09:36:28.136Z,12.72
2019-02-23T09:37:42.725Z,12.45
2019-02-23T09:38:28.820Z,12.43
2019-02-23T09:39:32.604Z,12.61
2019-02-23T09:40:28.144Z,12.55
2019-02-23T09:41:32.730Z,12.76
2019-02-23T09:42:28.066Z,12.87
2019-02-23T09:43:28.208Z,13.60
2019-02-23T09:44:38.729Z,13.68
2019-02-23T09:45:28.089Z,13.47
2019-02-23T09:46:32.626Z,13.44
2019-02-23T09:47:42.677Z,13.62
2019-02-23T09:49:06.840Z,13.65
2019-02-23T09:49:49.793Z,13.41
2019-02-23T09:50:59.761Z,13.27
2019-02-23T09:51:28.038Z,13.35
2019-02-23T09:52:27.854Z,13.39
2019-02-23T09:53:28.041Z,14.14
2019-02-23T09:54:30.042Z,14.30
2019-02-23T09:55:30.637Z,13.75
2019-02-23T09:56:42.747Z,13.99
2019-02-23T09:57:34.628Z,14.04
2019-02-23T09:58:31.228Z,13.79
2019-02-23T09:59:27.883Z,13.20
2019-02-23T10:00:28.732Z,13.57
2019-02-23T10:01:28.835Z,13.78
2019-02-23T10:02:30.645Z,13.68
2019-02-23T10:03:29.706Z,13.68
2019-02-23T10:04:28.821Z,13.52
2019-02-23T10:06:27.746Z,15.09
2019-02-23T10:07:28.785Z,15.25
2019-02-23T10:08:34.648Z,15.36
2019-02-23T10:09:59.370Z,15.35
2019-02-23T10:10:29.837Z,14.88
2019-02-23T10:11:38.627Z,15.18
2019-02-23T10:12:32.231Z,17.06
2019-02-23T10:13:27.738Z,16.87
2019-02-23T10:17:13.210Z,18.80
2019-02-23T10:19:57.540Z,17.24
2019-02-23T10:21:36.153Z,17.46
2019-02-23T10:22:30.473Z,20.72
2019-02-23T10:23:35.077Z,22.29
2019-02-23T10:24:30.466Z,21.73
2019-02-23T10:25:52.030Z,23.36
2019-02-23T10:26:45.633Z,24.74
2019-02-23T10:29:04.602Z,24.81
2019-02-23T10:32:39.467Z,29.51
2019-02-23T10:33:28.818Z,30.54
2019-02-23T10:34:56.246Z,31.14
2019-02-23T10:35:24.374Z,31.25
2019-02-23T10:36:56.055Z,32.11
2019-02-23T10:37:24.994Z,32.41
2019-02-23T10:38:25.913Z,32.95
2019-02-23T10:39:24.440Z,33.37
2019-02-23T10:40:25.509Z,33.68
2019-02-23T10:41:24.386Z,33.98
2019-02-23T10:42:25.896Z,34.39
2019-02-23T10:43:38.934Z,34.73
2019-02-23T10:44:56.145Z,34.83
2019-02-23T10:47:28.529Z,35.89
2019-02-23T10:51:20.582Z,36.46
2019-02-23T10:51:56.603Z,36.67
2019-02-23T10:54:16.984Z,37.18
2019-02-23T10:58:09.375Z,36.83
2019-02-23T11:04:50.835Z,37.35
2019-02-23T11:19:15.367Z,37.77
2019-02-23T11:21:22.429Z,37.60
2019-02-23T11:22:13.864Z,37.49
2019-02-23T11:23:15.926Z,37.86
2019-02-23T11:24:15.522Z,37.86
2019-02-23T11:25:13.891Z,37.75
2019-02-23T11:27:13.918Z,38.43
2019-02-23T11:28:13.855Z,38.36
2019-02-23T11:29:17.071Z,38.77
2019-02-23T11:30:16.327Z,39.22
2019-02-23T11:31:15.485Z,39.38
2019-02-23T11:33:13.935Z,39.72
2019-02-23T11:34:13.839Z,39.81
2019-02-23T11:35:16.984Z,39.97
2019-02-23T11:36:13.877Z,39.81
2019-02-23T11:37:14.770Z,39.77
2019-02-23T11:38:13.775Z,40.04
2019-02-23T11:39:16.051Z,40.14
2019-02-23T11:40:13.907Z,40.27
2019-02-23T11:41:13.865Z,40.20
2019-02-23T11:42:14.437Z,40.33
2019-02-23T11:43:13.843Z,40.12
2019-02-23T11:44:15.870Z,40.21
2019-02-23T11:45:15.996Z,40.33
2019-02-23T11:46:13.912Z,40.16
2019-02-23T11:47:13.951Z,39.93
2019-02-23T11:48:13.831Z,39.93
2019-02-23T11:49:14.478Z,40.12
2019-02-23T11:50:13.818Z,40.21
2019-02-23T11:51:15.967Z,40.27
2019-02-23T11:52:13.934Z,40.33
2019-02-23T11:53:15.536Z,40.50
2019-02-23T11:54:13.940Z,40.49
2019-02-23T11:55:13.899Z,40.62
2019-02-23T11:56:13.903Z,40.51
2019-02-23T11:57:13.891Z,40.26
2019-02-23T11:58:15.430Z,40.28
2019-02-23T11:59:15.450Z,40.41
2019-02-23T12:00:13.902Z,40.61
2019-02-23T12:02:14.967Z,40.50
2019-02-23T12:45:39.238Z,40.85
2019-02-23T12:48:20.167Z,40.54
2019-02-23T13:15:40.739Z,24.93
2019-02-23T13:16:52.720Z,23.91
2019-02-23T13:17:41.048Z,23.05
2019-02-23T13:18:38.941Z,22.17
2019-02-23T13:19:44.746Z,21.21
2019-02-23T13:20:37.728Z,20.55
2019-02-23T13:21:37.975Z,19.82
2019-02-23T13:22:38.766Z,19.30
2019-02-23T13:23:39.806Z,18.66
2019-02-23T13:24:37.781Z,18.01
2019-02-23T13:25:37.779Z,17.57
2019-02-23T13:26:37.660Z,17.01
2019-02-23T13:27:37.776Z,16.76
2019-02-23T13:28:42.365Z,16.28
2019-02-23T13:29:37.919Z,15.95
2019-02-23T13:30:37.966Z,15.75
2019-02-23T13:31:37.734Z,15.36
2019-02-23T13:32:39.331Z,15.24
2019-02-23T13:33:37.835Z,14.92
2019-02-23T13:34:37.747Z,14.77
2019-02-23T13:35:44.310Z,14.58
2019-02-23T13:36:38.314Z,14.30
2019-02-23T13:37:38.600Z,14.20
2019-02-23T13:38:42.462Z,13.97
2019-02-23T13:39:37.683Z,13.79
2019-02-23T13:40:37.689Z,13.60
2019-02-23T13:41:37.983Z,13.50
2019-02-23T13:42:37.790Z,14.82
2019-02-23T13:43:38.330Z,16.17
2019-02-23T13:44:37.684Z,17.48
2019-02-23T13:45:38.439Z,18.90
2019-02-23T13:47:37.703Z,21.09
2019-02-23T13:48:37.661Z,21.85
2019-02-23T13:52:47.916Z,24.23
2019-02-23T13:55:37.992Z,25.31
2019-02-23T13:56:28.753Z,25.81
2019-02-23T14:00:04.052Z,26.05
2019-02-23T14:01:00.781Z,26.19
2019-02-23T14:03:04.083Z,26.05
2019-02-23T14:03:54.612Z,25.99
2019-02-23T14:05:00.661Z,26.00
2019-02-23T14:05:54.464Z,25.90
2019-02-23T14:06:55.574Z,25.93
2019-02-23T14:07:53.916Z,25.80
2019-02-23T14:08:56.570Z,25.35
2019-02-23T14:09:56.322Z,24.32
2019-02-23T14:11:00.469Z,23.32
2019-02-23T14:11:54.323Z,22.51
2019-02-23T14:12:53.972Z,21.91
2019-02-23T14:13:58.573Z,20.75
2019-02-23T14:14:58.346Z,20.37
2019-02-23T14:16:14.700Z,20.24
2019-02-23T14:16:53.983Z,19.74
2019-02-23T14:17:53.804Z,18.83
2019-02-23T14:18:54.320Z,18.16
2019-02-23T14:19:55.314Z,17.42
2019-02-23T14:21:58.422Z,16.49
2019-02-23T14:23:14.611Z,16.39
2019-02-23T14:28:03.251Z,15.51
2019-02-23T14:28:51.488Z,15.22
2019-02-23T14:30:06.387Z,15.03
2019-02-23T14:31:12.604Z,15.03
2019-02-23T14:31:54.483Z,15.31
2019-02-23T14:32:58.292Z,15.55
2019-02-23T14:33:51.428Z,15.37
2019-02-23T14:34:53.360Z,15.22
2019-02-23T14:36:12.320Z,14.65
2019-02-23T14:36:52.241Z,14.12
2019-02-23T14:37:51.479Z,13.79
2019-02-23T14:38:53.203Z,13.42
2019-02-23T14:39:53.468Z,13.28
2019-02-23T14:40:53.424Z,13.04
2019-02-23T14:41:53.376Z,12.68
2019-02-23T14:42:51.407Z,12.37
2019-02-23T14:44:19.433Z,12.20
2019-02-23T14:44:52.299Z,11.87
2019-02-23T14:46:51.820Z,11.51
2019-02-23T14:47:55.793Z,11.22
2019-02-23T14:48:51.351Z,11.10
2019-02-23T14:49:53.960Z,10.97
2019-02-23T14:50:51.305Z,10.76
2019-02-23T14:51:59.465Z,10.57
2019-02-23T14:55:19.416Z,10.17
2019-02-23T14:56:07.584Z,10.02
2019-02-23T14:59:25.952Z,9.61
2019-02-23T15:00:35.518Z,9.54
2019-02-23T15:01:47.419Z,9.44
2019-02-23T15:02:27.347Z,9.39
2019-02-23T15:03:24.722Z,9.22
2019-02-23T15:04:31.369Z,9.08
2019-02-23T15:05:45.685Z,9.08
2019-02-23T15:07:27.471Z,8.87
2019-02-23T15:08:24.738Z,8.69
2019-02-23T15:09:25.534Z,8.66
2019-02-23T15:10:24.690Z,8.55
2019-02-23T15:11:25.534Z,8.52
2019-02-23T15:12:24.561Z,8.44
2019-02-23T15:13:24.585Z,8.42
2019-02-23T15:14:25.952Z,8.41
2019-02-23T15:17:59.577Z,8.05
2019-02-23T15:22:23.090Z,7.88
2019-02-23T15:23:13.100Z,7.93
2019-02-23T15:24:11.257Z,7.91
2019-02-23T15:25:13.472Z,7.85
2019-02-23T15:26:13.144Z,7.79
2019-02-23T15:27:11.176Z,7.67
2019-02-23T15:33:49.257Z,7.42
2019-02-23T15:37:23.262Z,7.28
2019-02-23T15:37:58.755Z,7.21
2019-02-23T15:39:14.657Z,7.23
2019-02-23T15:39:52.734Z,7.24
2019-02-23T15:40:51.866Z,7.17
2019-02-23T15:41:56.746Z,7.14
2019-02-23T15:42:58.722Z,7.07
2019-02-23T15:44:06.674Z,7.06
2019-02-23T15:44:53.758Z,7.05
2019-02-23T15:46:12.902Z,7.03
2019-02-23T15:47:14.792Z,7.00
2019-02-23T15:47:52.822Z,6.95
2019-02-23T15:48:51.796Z,6.92
2019-02-23T15:49:56.316Z,6.97
2019-02-23T15:50:52.224Z,6.93
2019-02-23T15:52:12.900Z,6.92
2019-02-23T15:53:27.058Z,6.85
2019-02-23T15:59:08.173Z,6.77
2019-02-23T15:59:39.267Z,6.85
2019-02-23T16:01:43.562Z,6.77
2019-02-23T16:05:45.777Z,6.69
2019-02-23T16:06:38.088Z,6.64
2019-02-23T16:07:38.643Z,6.64
2019-02-23T16:08:38.119Z,6.66
2019-02-23T16:09:44.102Z,6.66
2019-02-23T16:10:37.291Z,6.72
2019-02-23T16:11:39.161Z,6.59
2019-02-23T16:12:58.186Z,6.63
2019-02-23T16:13:44.150Z,6.63
2019-02-23T16:14:37.269Z,6.52
2019-02-23T16:15:38.076Z,6.56
2019-02-23T16:17:43.694Z,6.54
2019-02-23T16:18:37.164Z,6.60
2019-02-23T16:24:40.183Z,6.46
2019-02-23T16:25:44.489Z,6.46
2019-02-23T16:28:02.214Z,6.49
2019-02-23T16:28:39.568Z,6.48
2019-02-23T16:29:44.496Z,6.45